Time,TemperatureF,DewpointF,PressureIn,WindDirection,WindDirectionDegrees,WindSpeedMPH,WindSpeedGustMPH,Humidity,HourlyPrecipIn,Conditions,Clouds,dailyrainin,SolarRadiationWatts/m^2,SoftwareType,DateUTC
2015-04-19 00:05:00,77.0,71.0,29.98,SSW,198,0.0,0.0,82,0.00,,,0.00,0,weatherlink.com 1.10,2015-04-19 04:05:00,
2015-04-19 00:20:00,77.0,71.0,29.98,SSW,198,0.0,1.0,82,0.00,,,0.00,0,weatherlink.com 1.10,2015-04-19 04:20:00,
2015-04-19 00:35:00,76.9,71.0,29.97,SSW,198,0.0,1.0,82,0.00,,,0.00,0,weatherlink.com 1.10,2015-04-19 04:35:00,
2015-04-19 00:50:00,76.7,71.0,29.97,SSW,198,0.0,0.0,82,0.00,,,0.00,0,weatherlink.com 1.10,2015-04-19 04:50:00,
2015-04-19 01:05:00,76.8,71.0,29.97,NW,315,0.0,2.0,83,0.00,,,0.00,0,weatherlink.com 1.10,2015-04-19 05:05:00,
2015-04-19 01:20:00,76.7,71.0,29.96,SW,220,0.0,1.0,83,0.00,,,0.00,0,weatherlink.com 1.10,2015-04-19 05:20:00,
2015-04-19 01:35:00,76.6,71.0,29.96,SW,220,0.0,0.0,83,0.00,,,0.00,0,weatherlink.com 1.10,2015-04-19 05:35:00,
2015-04-19 01:50:00,76.2,71.0,29.95,SW,220,0.0,0.0,83,0.00,,,0.00,0,weatherlink.com 1.10,2015-04-19 05:50:00,
2015-04-19 02:05:00,75.9,70.0,29.94,SW,220,0.0,0.0,83,0.00,,,0.00,0,weatherlink.com 1.10,2015-04-19 06:05:00,
2015-04-19 02:20:00,75.9,70.0,29.94,SW,220,0.0,0.0,83,0.00,,,0.00,0,weatherlink.com 1.10,2015-04-19 06:20:00,
2015-04-19 02:35:00,75.6,71.0,29.94,SW,220,0.0,0.0,84,0.00,,,0.00,0,weatherlink.com 1.10,2015-04-19 06:35:00,
2015-04-19 02:50:00,75.2,70.0,29.94,SW,220,0.0,0.0,84,0.00,,,0.00,0,weatherlink.com 1.10,2015-04-19 06:50:00,
2015-04-19 03:05:00,74.9,70.0,29.93,SW,220,0.0,0.0,84,0.00,,,0.00,0,weatherlink.com 1.10,2015-04-19 07:05:00,
2015-04-19 03:20:00,74.9,70.0,29.93,SW,220,0.0,0.0,84,0.00,,,0.00,0,weatherlink.com 1.10,2015-04-19 07:20:00,
2015-04-19 03:35:00,75.3,70.0,29.93,SW,220,0.0,1.0,84,0.00,,,0.00,0,weatherlink.com 1.10,2015-04-19 07:35:00,
2015-04-19 03:50:00,75.6,71.0,29.93,SW,220,0.0,0.0,84,0.00,,,0.00,0,weatherlink.com 1.10,2015-04-19 07:50:00,
2015-04-19 04:05:00,75.6,71.0,29.93,SW,220,0.0,0.0,84,0.00,,,0.00,0,weatherlink.com 1.10,2015-04-19 08:05:00,
2015-04-19 04:20:00,75.6,71.0,29.93,SW,220,0.0,1.0,84,0.00,,,0.00,0,weatherlink.com 1.10,2015-04-19 08:20:00,
2015-04-19 04:35:00,75.6,71.0,29.93,SW,220,0.0,0.0,84,0.00,,,0.00,0,weatherlink.com 1.10,2015-04-19 08:35:00,
2015-04-19 04:50:00,75.6,71.0,29.93,SW,220,0.0,0.0,84,0.00,,,0.00,0,weatherlink.com 1.10,2015-04-19 08:50:00,
2015-04-19 05:05:00,75.7,71.0,29.93,SW,220,0.0,0.0,84,0.00,,,0.00,0,weatherlink.com 1.10,2015-04-19 09:05:00,
2015-04-19 05:20:00,75.8,71.0,29.93,SW,220,0.0,0.0,84,0.00,,,0.00,0,weatherlink.com 1.10,2015-04-19 09:20:00,
2015-04-19 05:35:00,75.9,71.0,29.93,SW,218,0.0,2.0,84,0.00,,,0.00,0,weatherlink.com 1.10,2015-04-19 09:35:00,
2015-04-19 05:50:00,75.8,71.0,29.93,SW,218,0.0,1.0,84,0.00,,,0.00,0,weatherlink.com 1.10,2015-04-19 09:50:00,
2015-04-19 06:05:00,75.6,71.0,29.93,SW,218,0.0,1.0,84,0.00,,,0.00,0,weatherlink.com 1.10,2015-04-19 10:05:00,
2015-04-19 06:35:00,75.4,70.0,29.95,SW,218,0.0,1.0,84,0.00,,,0.00,0,weatherlink.com 1.10,2015-04-19 10:35:00,
2015-04-19 06:50:00,75.6,71.0,29.96,SW,223,0.0,2.0,84,0.00,,,0.00,0,weatherlink.com 1.10,2015-04-19 10:50:00,
2015-04-19 07:05:00,75.7,71.0,29.96,SW,232,1.0,3.0,84,0.00,,,0.00,14,weatherlink.com 1.10,2015-04-19 11:05:00,
2015-04-19 07:20:00,75.7,71.0,29.96,SW,232,0.0,2.0,84,0.00,,,0.00,18,weatherlink.com 1.10,2015-04-19 11:20:00,
2015-04-19 07:35:00,75.8,71.0,29.96,SW,222,0.0,2.0,84,0.00,,,0.00,25,weatherlink.com 1.10,2015-04-19 11:35:00,
2015-04-19 07:50:00,76.0,71.0,29.97,SW,222,0.0,2.0,84,0.00,,,0.00,54,weatherlink.com 1.10,2015-04-19 11:50:00,
2015-04-19 08:05:00,76.4,71.0,29.97,SW,222,0.0,2.0,84,0.00,,,0.00,90,weatherlink.com 1.10,2015-04-19 12:05:00,
2015-04-19 08:20:00,76.8,72.0,29.97,SW,234,0.0,2.0,84,0.00,,,0.00,179,weatherlink.com 1.10,2015-04-19 12:20:00,
2015-04-19 08:35:00,77.6,73.0,29.97,SW,229,0.0,2.0,84,0.00,,,0.00,186,weatherlink.com 1.10,2015-04-19 12:35:00,
2015-04-19 08:50:00,78.9,73.0,29.97,SSW,200,0.0,3.0,83,0.00,,,0.00,332,weatherlink.com 1.10,2015-04-19 12:50:00,
2015-04-19 09:06:00,82.2,75.0,29.98,WSW,252,2.0,3.0,79,0.00,,,0.00,420,weatherlink.com 1.10,2015-04-19 13:06:00,
2015-04-19 09:21:00,83.4,74.0,29.98,NW,306,2.0,7.0,74,0.00,,,0.00,406,weatherlink.com 1.10,2015-04-19 13:21:00,
2015-04-19 09:36:00,84.2,75.0,29.98,West,273,3.0,6.0,74,0.00,,,0.00,279,weatherlink.com 1.10,2015-04-19 13:36:00,
2015-04-19 09:51:00,85.2,75.0,29.98,SW,217,3.0,5.0,71,0.00,,,0.00,522,weatherlink.com 1.10,2015-04-19 13:51:00,
2015-04-19 10:06:00,84.6,74.0,29.97,South,171,1.0,4.0,71,0.00,,,0.00,638,weatherlink.com 1.10,2015-04-19 14:06:00,
2015-04-19 10:21:00,86.4,75.0,29.96,SW,216,1.0,6.0,68,0.00,,,0.00,649,weatherlink.com 1.10,2015-04-19 14:21:00,
2015-04-19 10:36:00,86.9,75.0,29.96,SW,217,2.0,6.0,67,0.00,,,0.00,754,weatherlink.com 1.10,2015-04-19 14:36:00,
2015-04-19 10:51:00,85.8,75.0,29.95,ESE,109,3.0,7.0,69,0.00,,,0.00,800,weatherlink.com 1.10,2015-04-19 14:51:00,
2015-04-19 11:06:00,87.2,74.0,29.95,SE,131,2.0,7.0,65,0.00,,,0.00,777,weatherlink.com 1.10,2015-04-19 15:06:00,
2015-04-19 11:21:00,88.8,74.0,29.95,SSE,159,2.0,7.0,61,0.00,,,0.00,809,weatherlink.com 1.10,2015-04-19 15:21:00,
2015-04-19 11:36:00,88.2,74.0,29.94,SSW,202,1.0,11.0,62,0.00,,,0.00,842,weatherlink.com 1.10,2015-04-19 15:36:00,
2015-04-19 11:51:00,87.9,72.0,29.94,ESE,115,3.0,8.0,60,0.00,,,0.00,863,weatherlink.com 1.10,2015-04-19 15:51:00,
2015-04-19 12:06:00,87.6,71.0,29.94,SE,134,9.0,10.0,59,0.00,,,0.00,886,weatherlink.com 1.10,2015-04-19 16:06:00,
2015-04-19 12:21:00,88.3,72.0,29.94,SSE,164,4.0,10.0,59,0.00,,,0.00,909,weatherlink.com 1.10,2015-04-19 16:21:00,
2015-04-19 12:36:00,87.6,71.0,29.94,SE,136,5.0,18.0,59,0.00,,,0.00,918,weatherlink.com 1.10,2015-04-19 16:36:00,
2015-04-19 12:51:00,88.3,73.0,29.94,SSW,202,4.0,14.0,61,0.00,,,0.00,925,weatherlink.com 1.10,2015-04-19 16:51:00,
2015-04-19 13:06:00,88.3,74.0,29.93,East,93,4.0,11.0,62,0.00,,,0.00,923,weatherlink.com 1.10,2015-04-19 17:06:00,
2015-04-19 13:21:00,88.2,73.0,29.93,SSE,167,5.0,10.0,60,0.00,,,0.00,937,weatherlink.com 1.10,2015-04-19 17:21:00,
2015-04-19 13:36:00,89.5,73.0,29.93,WSW,250,3.0,10.0,58,0.00,,,0.00,935,weatherlink.com 1.10,2015-04-19 17:36:00,
2015-04-19 14:06:00,90.7,73.0,29.91,ESE,123,4.0,11.0,57,0.00,,,0.00,914,weatherlink.com 1.10,2015-04-19 18:06:00,
2015-04-19 14:21:00,90.9,73.0,29.91,ESE,117,2.0,10.0,56,0.00,,,0.00,902,weatherlink.com 1.10,2015-04-19 18:21:00,
2015-04-19 14:37:00,88.9,73.0,29.90,ESE,115,7.0,14.0,60,0.00,,,0.00,879,weatherlink.com 1.10,2015-04-19 18:37:00,
2015-04-19 14:52:00,88.6,75.0,29.90,SSW,205,3.0,11.0,64,0.00,,,0.00,861,weatherlink.com 1.10,2015-04-19 18:52:00,
2015-04-19 15:07:00,89.0,75.0,29.90,SSE,159,2.0,12.0,63,0.00,,,0.00,847,weatherlink.com 1.10,2015-04-19 19:07:00,
2015-04-19 15:24:00,87.9,74.0,29.90,ESE,111,3.0,11.0,64,0.00,,,0.00,218,weatherlink.com 1.10,2015-04-19 19:24:00,
2015-04-19 15:36:00,88.6,74.0,29.89,SE,124,4.0,11.0,62,0.00,,,0.00,728,weatherlink.com 1.10,2015-04-19 19:36:00,
2015-04-19 15:51:00,87.5,74.0,29.89,SSE,148,3.0,11.0,64,0.00,,,0.00,171,weatherlink.com 1.10,2015-04-19 19:51:00,
2015-04-19 16:06:00,87.2,74.0,29.88,SE,142,2.0,11.0,65,0.00,,,0.00,707,weatherlink.com 1.10,2015-04-19 20:06:00,
2015-04-19 16:21:00,87.0,73.0,29.89,South,181,2.0,10.0,63,0.00,,,0.00,107,weatherlink.com 1.10,2015-04-19 20:21:00,
2015-04-19 16:36:00,87.3,74.0,29.88,SSE,160,5.0,10.0,64,0.00,,,0.00,628,weatherlink.com 1.10,2015-04-19 20:36:00,
2015-04-19 16:51:00,87.1,72.0,29.88,SSE,152,2.0,11.0,62,0.00,,,0.00,568,weatherlink.com 1.10,2015-04-19 20:51:00,
2015-04-19 17:06:00,86.4,72.0,29.88,ESE,117,4.0,11.0,63,0.00,,,0.00,148,weatherlink.com 1.10,2015-04-19 21:06:00,
2015-04-19 17:21:00,86.0,72.0,29.88,SE,138,3.0,11.0,64,0.00,,,0.00,371,weatherlink.com 1.10,2015-04-19 21:21:00,
2015-04-19 17:37:00,84.9,73.0,29.87,SE,140,5.0,13.0,67,0.00,,,0.00,262,weatherlink.com 1.10,2015-04-19 21:37:00,
2015-04-19 17:51:00,83.6,73.0,29.87,SE,133,8.0,11.0,70,0.00,,,0.00,278,weatherlink.com 1.10,2015-04-19 21:51:00,
2015-04-19 18:06:00,83.2,73.0,29.87,SSE,153,3.0,10.0,72,0.00,,,0.00,91,weatherlink.com 1.10,2015-04-19 22:06:00,
2015-04-19 18:21:00,82.9,73.0,29.87,SE,128,7.0,8.0,73,0.00,,,0.00,113,weatherlink.com 1.10,2015-04-19 22:21:00,
2015-04-19 18:37:00,82.8,74.0,29.88,SE,128,3.0,8.0,74,0.00,,,0.00,107,weatherlink.com 1.10,2015-04-19 22:37:00,
2015-04-19 18:51:00,82.4,73.0,29.87,ESE,109,7.0,9.0,74,0.00,,,0.00,47,weatherlink.com 1.10,2015-04-19 22:51:00,
2015-04-19 19:06:00,82.2,73.0,29.87,SSW,198,2.0,9.0,74,0.00,,,0.00,35,weatherlink.com 1.10,2015-04-19 23:06:00,
2015-04-19 19:21:00,81.6,73.0,29.87,SE,131,2.0,8.0,76,0.00,,,0.00,19,weatherlink.com 1.10,2015-04-19 23:21:00,
2015-04-19 19:36:00,81.1,74.0,29.87,SE,138,2.0,11.0,78,0.00,,,0.00,7,weatherlink.com 1.10,2015-04-19 23:36:00,
2015-04-19 19:51:00,80.5,73.0,29.88,SE,140,0.0,9.0,79,0.00,,,0.00,0,weatherlink.com 1.10,2015-04-19 23:51:00,
2015-04-19 20:06:00,80.2,74.0,29.87,South,190,2.0,10.0,80,0.00,,,0.00,0,weatherlink.com 1.10,2015-04-20 00:06:00,
2015-04-19 20:21:00,80.0,73.0,29.88,East,99,0.0,8.0,80,0.00,,,0.00,0,weatherlink.com 1.10,2015-04-20 00:21:00,
2015-04-19 20:36:00,79.9,74.0,29.89,SE,133,0.0,4.0,81,0.00,,,0.00,0,weatherlink.com 1.10,2015-04-20 00:36:00,
2015-04-19 20:51:00,79.8,74.0,29.89,SE,130,1.0,7.0,81,0.00,,,0.00,0,weatherlink.com 1.10,2015-04-20 00:51:00,
2015-04-19 21:06:00,79.8,74.0,29.90,SE,127,3.0,6.0,81,0.00,,,0.00,0,weatherlink.com 1.10,2015-04-20 01:06:00,